createdAt,value
2017-10-31T00:02:13.766Z,13.23
2017-10-31T00:04:42.550Z,11.63
2017-10-31T00:07:11.246Z,24.07
2017-10-31T00:09:40.942Z,17.60
2017-10-31T00:12:09.742Z,14.23
2017-10-31T00:14:38.416Z,14.33
2017-10-31T00:17:07.203Z,21.20
2017-10-31T00:19:35.892Z,15.57
2017-10-31T00:22:04.580Z,17.57
2017-10-31T00:24:34.288Z,18.50
2017-10-31T00:27:02.980Z,13.70
2017-10-31T00:29:31.761Z,17.90
2017-10-31T00:32:00.556Z,17.27
2017-10-31T00:34:29.236Z,16.40
2017-10-31T00:36:57.926Z,19.33
2017-10-31T00:39:27.839Z,15.23
2017-10-31T00:41:56.524Z,12.97
2017-10-31T00:44:25.210Z,22.00
2017-10-31T00:46:55.129Z,12.93
2017-10-31T00:49:24.121Z,19.93
2017-10-31T00:51:52.908Z,18.73
2017-10-31T00:54:21.801Z,13.80
2017-10-31T00:56:50.487Z,12.10
2017-10-31T00:59:19.378Z,14.40
2017-10-31T01:01:48.061Z,14.27
2017-10-31T01:04:16.754Z,12.17
2017-10-31T01:06:45.437Z,14.60
2017-10-31T01:09:14.327Z,16.23
2017-10-31T01:11:43.273Z,14.97
2017-10-31T01:14:12.726Z,9.77
2017-10-31T01:16:42.434Z,16.90
2017-10-31T01:19:11.326Z,9.57
2017-10-31T01:21:40.227Z,8.40
2017-10-31T01:24:09.151Z,9.90
2017-10-31T01:26:38.613Z,9.57
2017-10-31T01:29:07.303Z,7.00
2017-10-31T01:31:37.221Z,6.70
2017-10-31T01:34:06.717Z,7.33
2017-10-31T01:36:35.610Z,8.20
2017-10-31T01:39:04.401Z,7.23
2017-10-31T01:41:33.287Z,9.73
2017-10-31T01:44:02.083Z,5.93
2017-10-31T01:46:32.143Z,7.63
2017-10-31T01:49:01.092Z,3.80
2017-10-31T01:51:29.727Z,5.50
2017-10-31T01:53:58.465Z,11.77
2017-10-31T01:56:27.574Z,5.97
2017-10-31T01:58:56.447Z,12.30
2017-10-31T02:01:25.340Z,4.63
2017-10-31T02:03:54.847Z,8.13
2017-10-31T02:06:23.735Z,5.20
2017-10-31T02:08:52.625Z,8.93
2017-10-31T02:11:21.465Z,5.33
2017-10-31T02:13:50.204Z,7.97
2017-10-31T02:16:19.106Z,7.50
2017-10-31T02:18:48.823Z,8.27
2017-10-31T02:21:18.519Z,15.43
2017-10-31T02:23:47.506Z,4.80
2017-10-31T02:26:16.400Z,4.50
2017-10-31T02:28:45.391Z,3.73
2017-10-31T02:31:14.128Z,5.83
2017-10-31T02:33:43.273Z,5.60
2017-10-31T02:36:12.268Z,4.67
2017-10-31T02:38:52.780Z,4.33
2017-10-31T02:41:21.466Z,8.10
2017-10-31T02:43:50.615Z,9.33
2017-10-31T02:46:19.511Z,9.83
2017-10-31T02:48:48.408Z,7.57
2017-10-31T02:51:18.113Z,7.50
2017-10-31T02:53:47.004Z,11.67
2017-10-31T02:56:16.040Z,6.90
2017-10-31T02:58:44.940Z,5.57
2017-10-31T03:01:13.878Z,10.40
2017-10-31T03:03:42.875Z,6.57
2017-10-31T03:06:11.661Z,4.13
2017-10-31T03:08:40.564Z,4.40
2017-10-31T03:11:09.654Z,18.47
2017-10-31T03:13:38.541Z,7.80
2017-10-31T03:16:07.760Z,8.20
2017-10-31T03:18:36.883Z,10.10
2017-10-31T03:21:06.053Z,5.83
2017-10-31T03:23:35.135Z,5.37
2017-10-31T03:26:04.835Z,9.73
2017-10-31T03:28:33.831Z,7.33
2017-10-31T03:31:02.722Z,4.77
2017-10-31T03:33:31.664Z,9.23
2017-10-31T03:36:00.605Z,7.87
2017-10-31T03:38:29.516Z,8.00
2017-10-31T03:40:58.491Z,9.40
2017-10-31T03:43:27.595Z,7.20
2017-10-31T03:45:56.700Z,6.23
2017-10-31T03:48:25.679Z,8.33
2017-10-31T03:50:54.567Z,7.97
2017-10-31T03:53:23.356Z,7.03
2017-10-31T03:55:52.350Z,8.40
2017-10-31T03:58:21.250Z,10.07
2017-10-31T04:00:50.955Z,7.40
2017-10-31T04:03:19.945Z,14.70
2017-10-31T04:05:48.839Z,7.83
2017-10-31T04:08:17.609Z,8.83
2017-10-31T04:10:46.616Z,12.13
2017-10-31T04:13:15.517Z,6.10
2017-10-31T04:15:44.402Z,11.97
2017-10-31T04:18:13.197Z,9.13
2017-10-31T04:20:42.078Z,8.80
2017-10-31T04:23:10.967Z,5.87
2017-10-31T04:25:39.858Z,9.60
2017-10-31T04:28:09.131Z,7.77
2017-10-31T04:30:38.073Z,10.40
2017-10-31T04:33:06.997Z,11.00
2017-10-31T04:35:35.980Z,10.10
2017-10-31T04:38:05.444Z,9.87
2017-10-31T04:40:35.560Z,10.63
2017-10-31T04:43:04.553Z,8.67
2017-10-31T04:45:33.651Z,6.57
2017-10-31T04:48:02.849Z,8.50
2017-10-31T04:50:31.971Z,12.80
2017-10-31T04:53:01.662Z,10.53
2017-10-31T04:55:30.648Z,8.77
2017-10-31T04:58:00.623Z,8.70
2017-10-31T05:00:29.760Z,10.53
2017-10-31T05:02:58.804Z,9.50
2017-10-31T05:05:27.895Z,11.17
2017-10-31T05:07:57.359Z,8.40
2017-10-31T05:10:27.437Z,8.40
2017-10-31T05:12:56.256Z,9.80
2017-10-31T05:15:25.370Z,12.87
2017-10-31T05:17:54.255Z,10.10
2017-10-31T05:20:24.785Z,10.43
2017-10-31T05:22:53.612Z,14.33
2017-10-31T05:25:22.529Z,9.27
2017-10-31T05:27:51.389Z,8.33
2017-10-31T05:30:20.755Z,7.57
2017-10-31T05:32:49.660Z,7.67
2017-10-31T05:35:18.739Z,13.23
2017-10-31T05:37:48.762Z,11.83
2017-10-31T05:40:17.559Z,8.03
2017-10-31T05:42:46.235Z,16.90
2017-10-31T05:45:15.545Z,9.97
2017-10-31T05:47:45.248Z,11.40
2017-10-31T05:50:13.933Z,8.60
2017-10-31T05:52:42.828Z,13.13
2017-10-31T05:55:11.975Z,12.20
2017-10-31T05:57:40.883Z,11.57
2017-10-31T06:00:09.898Z,8.70
2017-10-31T06:02:38.795Z,13.00
2017-10-31T06:05:07.875Z,12.00
2017-10-31T06:07:36.941Z,11.23
2017-10-31T06:10:05.881Z,8.03
2017-10-31T06:12:34.602Z,10.03
2017-10-31T06:15:04.283Z,6.80
2017-10-31T06:17:33.370Z,8.63
2017-10-31T06:20:02.311Z,12.87
2017-10-31T06:22:36.890Z,10.00
2017-10-31T06:25:11.314Z,13.63
2017-10-31T06:27:46.751Z,7.30
2017-10-31T06:30:21.787Z,8.33
2017-10-31T06:32:50.678Z,8.00
2017-10-31T06:35:19.364Z,14.03
2017-10-31T06:37:48.262Z,12.07
2017-10-31T06:40:17.151Z,8.50
2017-10-31T06:42:45.844Z,12.43
2017-10-31T06:45:14.524Z,7.60
2017-10-31T06:47:43.217Z,9.27
2017-10-31T06:50:12.099Z,12.63
2017-10-31T06:52:40.985Z,16.33
2017-10-31T06:55:09.673Z,17.57
2017-10-31T06:57:38.358Z,11.53
2017-10-31T07:00:07.050Z,8.07
2017-10-31T07:02:35.833Z,9.67
2017-10-31T07:05:04.520Z,21.80
2017-10-31T07:07:33.412Z,20.00
2017-10-31T07:10:02.302Z,15.40
2017-10-31T07:12:31.194Z,22.20
2017-10-31T07:14:59.879Z,14.63
2017-10-31T07:17:28.567Z,11.63
2017-10-31T07:19:57.253Z,11.67
2017-10-31T07:22:25.939Z,20.10
2017-10-31T07:24:54.829Z,11.83
2017-10-31T07:27:23.517Z,17.63
2017-10-31T07:29:52.434Z,11.73
2017-10-31T07:32:21.299Z,12.80
2017-10-31T07:34:49.986Z,15.20
2017-10-31T07:37:18.677Z,19.77
2017-10-31T07:39:47.562Z,13.30
2017-10-31T07:42:16.255Z,11.07
2017-10-31T07:44:44.934Z,28.83
2017-10-31T07:47:13.826Z,21.50
2017-10-31T07:49:42.510Z,12.50
2017-10-31T07:52:11.404Z,18.90
2017-10-31T07:54:40.089Z,12.43
2017-10-31T07:57:08.773Z,11.83
2017-10-31T07:59:37.467Z,16.27
2017-10-31T08:02:07.170Z,19.47
2017-10-31T08:04:36.067Z,17.80
2017-10-31T08:10:03.758Z,46.07
2017-10-31T08:12:32.587Z,21.07
2017-10-31T08:15:01.436Z,14.60
2017-10-31T08:17:30.826Z,17.17
2017-10-31T08:19:59.463Z,22.67
2017-10-31T08:22:28.198Z,13.57
2017-10-31T08:24:56.885Z,17.77
2017-10-31T08:27:25.580Z,20.03
2017-10-31T08:29:54.257Z,22.90
2017-10-31T08:32:23.155Z,17.77
2017-10-31T08:34:51.845Z,16.27
2017-10-31T08:37:20.528Z,21.70
2017-10-31T08:39:50.234Z,17.90
2017-10-31T08:42:19.122Z,14.90
2017-10-31T08:44:48.013Z,18.63
2017-10-31T08:47:16.904Z,18.47
2017-10-31T08:49:45.697Z,17.43
2017-10-31T08:52:14.587Z,20.47
2017-10-31T08:54:43.444Z,10.20
2017-10-31T08:57:12.986Z,12.87
2017-10-31T08:59:42.694Z,14.80
2017-10-31T09:02:11.584Z,13.37
2017-10-31T09:04:40.273Z,14.37
2017-10-31T09:07:09.780Z,14.13
2017-10-31T09:09:38.667Z,17.83
2017-10-31T09:12:07.351Z,16.57
2017-10-31T09:14:36.041Z,21.47
2017-10-31T09:17:04.934Z,17.80
2017-10-31T09:19:33.616Z,12.80
2017-10-31T09:22:02.302Z,20.13
2017-10-31T09:24:30.986Z,11.37
2017-10-31T09:26:59.674Z,11.97
2017-10-31T09:29:28.373Z,10.20
2017-10-31T09:31:57.253Z,15.77
2017-10-31T09:34:25.948Z,16.43
2017-10-31T09:36:56.469Z,16.80
2017-10-31T09:39:25.357Z,12.27
2017-10-31T09:41:58.152Z,9.70
2017-10-31T09:44:27.035Z,10.63
2017-10-31T09:46:55.721Z,24.13
2017-10-31T09:49:24.614Z,13.67
2017-10-31T09:51:53.501Z,55.00
2017-10-31T09:54:22.393Z,13.77
2017-10-31T09:56:51.078Z,70.40
2017-10-31T09:59:19.924Z,11.00
2017-10-31T10:01:49.524Z,14.73
2017-10-31T10:04:18.264Z,17.20
2017-10-31T10:06:47.153Z,15.03
2017-10-31T10:09:15.844Z,11.53
2017-10-31T10:11:44.536Z,9.47
2017-10-31T10:14:13.417Z,12.03
2017-10-31T10:16:42.104Z,10.97
2017-10-31T10:19:10.793Z,18.50
2017-10-31T10:21:39.678Z,20.97
2017-10-31T10:24:08.365Z,10.60
2017-10-31T10:26:37.050Z,15.77
2017-10-31T10:29:05.736Z,13.67
2017-10-31T10:31:34.638Z,14.77
2017-10-31T10:34:03.521Z,11.23
2017-10-31T10:36:32.421Z,15.40
2017-10-31T10:39:01.321Z,14.70
2017-10-31T10:41:30.762Z,20.47
2017-10-31T10:43:59.898Z,18.83
2017-10-31T10:46:29.090Z,15.43
2017-10-31T10:48:57.901Z,13.73
2017-10-31T10:51:26.781Z,17.97
2017-10-31T10:53:55.468Z,19.43
2017-10-31T10:56:24.153Z,14.77
2017-10-31T10:58:53.801Z,14.50
2017-10-31T11:01:22.960Z,19.23
2017-10-31T11:03:51.955Z,11.87
2017-10-31T11:06:20.674Z,9.90
2017-10-31T11:08:49.429Z,11.27
2017-10-31T11:11:18.103Z,9.17
2017-10-31T11:13:46.969Z,15.87
2017-10-31T11:16:15.634Z,8.40
2017-10-31T11:18:45.403Z,14.20
2017-10-31T11:21:14.302Z,10.27
2017-10-31T11:23:43.806Z,8.83
2017-10-31T11:26:12.487Z,27.17
2017-10-31T11:28:41.380Z,9.20
2017-10-31T11:31:10.621Z,8.10
2017-10-31T11:33:39.362Z,10.10
2017-10-31T11:36:08.150Z,15.50
2017-10-31T11:38:36.837Z,12.30
2017-10-31T11:41:05.934Z,10.00
2017-10-31T11:43:34.830Z,8.17
2017-10-31T11:46:03.862Z,18.73
2017-10-31T11:48:33.425Z,12.83
2017-10-31T11:51:02.280Z,22.93
2017-10-31T11:53:31.013Z,15.23
2017-10-31T11:55:59.791Z,17.83
2017-10-31T11:58:28.687Z,15.93
2017-10-31T12:00:57.590Z,15.60
2017-10-31T12:03:26.671Z,21.40
2017-10-31T12:05:55.567Z,12.43
2017-10-31T12:08:24.456Z,21.33
2017-10-31T12:10:53.137Z,18.20
2017-10-31T12:13:21.827Z,19.07
2017-10-31T12:15:50.612Z,16.03
2017-10-31T12:18:19.505Z,16.00
2017-10-31T12:20:48.394Z,21.03
2017-10-31T12:23:17.079Z,22.73
2017-10-31T12:25:45.970Z,13.83
2017-10-31T12:28:15.698Z,19.40
2017-10-31T12:30:45.200Z,17.10
2017-10-31T12:33:14.080Z,21.70
2017-10-31T12:35:42.968Z,28.27
2017-10-31T12:38:11.857Z,25.07
2017-10-31T12:40:40.749Z,23.00
2017-10-31T12:43:09.640Z,11.20
2017-10-31T12:45:38.531Z,16.13
2017-10-31T12:48:08.037Z,17.47
2017-10-31T12:50:36.723Z,23.60
2017-10-31T12:53:05.516Z,16.13
2017-10-31T12:55:34.303Z,15.03
2017-10-31T12:58:03.197Z,19.17
2017-10-31T13:00:31.987Z,10.90
2017-10-31T13:03:01.487Z,12.43
2017-10-31T13:05:30.379Z,13.80
2017-10-31T13:07:59.986Z,17.13
2017-10-31T13:10:28.674Z,18.83
2017-10-31T13:12:57.563Z,22.20
2017-10-31T13:15:26.454Z,16.07
2017-10-31T13:17:55.970Z,12.17
2017-10-31T13:20:24.853Z,18.97
2017-10-31T13:22:53.947Z,13.57
2017-10-31T13:25:22.631Z,17.93
2017-10-31T13:27:52.141Z,11.90
2017-10-31T13:30:21.766Z,12.00
2017-10-31T13:32:51.683Z,11.73
2017-10-31T13:35:21.451Z,11.97
2017-10-31T13:37:50.898Z,15.53
2017-10-31T13:40:20.735Z,10.43
2017-10-31T13:42:51.443Z,12.47
2017-10-31T13:45:20.423Z,20.83
2017-10-31T13:47:49.885Z,17.77
2017-10-31T13:50:19.406Z,11.10
2017-10-31T13:52:48.317Z,14.80
2017-10-31T13:55:17.003Z,15.57
2017-10-31T13:57:45.904Z,21.40
2017-10-31T14:00:15.682Z,15.17
2017-10-31T14:02:45.476Z,18.80
2017-10-31T14:05:15.232Z,27.33
2017-10-31T14:07:45.024Z,16.03
2017-10-31T14:10:14.496Z,11.33
2017-10-31T14:12:44.232Z,13.93
2017-10-31T14:15:13.047Z,12.07
2017-10-31T14:17:41.740Z,13.60
2017-10-31T14:20:11.296Z,12.10
2017-10-31T14:22:40.234Z,8.30
2017-10-31T14:25:08.927Z,15.43
2017-10-31T14:27:37.818Z,14.30
2017-10-31T14:30:06.644Z,8.63
2017-10-31T14:32:35.386Z,17.70
2017-10-31T14:35:04.289Z,10.90
2017-10-31T14:37:33.373Z,16.27
2017-10-31T14:40:02.263Z,9.03
2017-10-31T14:42:31.158Z,18.87
2017-10-31T14:45:00.661Z,15.13
2017-10-31T14:47:29.557Z,13.13
2017-10-31T14:49:58.442Z,8.63
2017-10-31T14:52:27.557Z,11.50
2017-10-31T14:54:56.430Z,10.57
2017-10-31T14:57:25.330Z,15.03
2017-10-31T14:59:54.218Z,10.93
2017-10-31T15:02:22.902Z,9.30
2017-10-31T15:04:51.792Z,15.83
2017-10-31T15:07:20.705Z,12.20
2017-10-31T15:09:49.368Z,12.83
2017-10-31T15:12:18.053Z,9.63
2017-10-31T15:14:46.744Z,13.10
2017-10-31T15:17:15.430Z,11.83
2017-10-31T15:19:44.113Z,9.10
2017-10-31T15:22:12.801Z,11.20
2017-10-31T15:24:41.484Z,9.60
2017-10-31T15:27:10.406Z,8.70
2017-10-31T15:29:39.177Z,10.60
2017-10-31T15:32:07.950Z,12.93
2017-10-31T15:34:36.639Z,10.02
2017-10-31T15:37:05.324Z,11.20
2017-10-31T15:39:34.017Z,13.43
2017-10-31T15:42:03.620Z,18.80
2017-10-31T15:44:32.311Z,12.63
2017-10-31T15:47:00.993Z,19.20
2017-10-31T15:49:29.885Z,10.90
2017-10-31T15:51:58.569Z,6.30
2017-10-31T15:54:27.253Z,13.80
2017-10-31T15:56:55.941Z,11.47
2017-10-31T15:59:24.625Z,12.93
2017-10-31T16:01:53.314Z,8.77
2017-10-31T16:04:22.204Z,12.57
2017-10-31T16:06:50.889Z,14.57
2017-10-31T16:09:19.577Z,11.50
2017-10-31T16:11:50.110Z,15.50
2017-10-31T16:14:18.791Z,7.50
2017-10-31T16:16:47.478Z,4.87
2017-10-31T16:19:16.368Z,9.63
2017-10-31T16:21:45.109Z,11.77
2017-10-31T16:24:13.790Z,15.20
2017-10-31T16:26:42.735Z,7.27
2017-10-31T16:29:11.625Z,7.33
2017-10-31T16:31:40.414Z,15.17
2017-10-31T16:34:09.255Z,13.00
2017-10-31T16:36:37.941Z,13.93
2017-10-31T16:39:06.680Z,12.33
2017-10-31T16:41:36.124Z,8.03
2017-10-31T16:44:05.704Z,10.37
2017-10-31T16:46:34.380Z,9.70
2017-10-31T16:49:03.269Z,11.40
2017-10-31T16:51:31.956Z,9.70
2017-10-31T16:54:00.637Z,14.00
2017-10-31T16:56:29.368Z,20.90
2017-10-31T16:58:58.119Z,12.33
2017-10-31T17:01:26.760Z,8.57
2017-10-31T17:03:55.484Z,10.73
2017-10-31T17:06:24.485Z,8.60
2017-10-31T17:08:53.491Z,8.17
2017-10-31T17:11:22.572Z,11.70
2017-10-31T17:13:51.778Z,10.10
2017-10-31T17:16:20.663Z,5.90
2017-10-31T17:18:49.510Z,18.77
2017-10-31T17:21:18.765Z,5.87
2017-10-31T17:23:47.740Z,7.47
2017-10-31T17:26:16.841Z,12.03
2017-10-31T17:28:46.171Z,9.27
2017-10-31T17:31:15.481Z,7.87
2017-10-31T17:33:44.682Z,14.20
2017-10-31T17:36:14.989Z,15.40
2017-10-31T17:38:44.058Z,13.73
2017-10-31T17:41:14.936Z,10.33
2017-10-31T17:43:43.894Z,14.20
2017-10-31T17:46:12.796Z,15.70
2017-10-31T17:48:41.975Z,12.10
2017-10-31T17:51:10.772Z,14.93
2017-10-31T17:53:39.861Z,15.93
2017-10-31T17:56:08.964Z,10.60
2017-10-31T17:58:37.795Z,13.33
2017-10-31T18:01:06.882Z,10.77
2017-10-31T18:03:36.084Z,13.50
2017-10-31T18:06:04.944Z,12.53
2017-10-31T18:08:33.900Z,9.40
2017-10-31T18:11:02.872Z,17.73
2017-10-31T18:13:32.730Z,11.43
2017-10-31T18:16:01.619Z,13.57
2017-10-31T18:18:30.510Z,19.07
2017-10-31T18:20:59.607Z,16.00
2017-10-31T18:23:28.397Z,14.23
2017-10-31T18:25:57.183Z,15.20
2017-10-31T18:28:25.885Z,12.43
2017-10-31T18:30:54.562Z,10.70
2017-10-31T18:33:23.862Z,11.50
2017-10-31T18:35:52.582Z,9.60
2017-10-31T18:38:21.436Z,12.97
2017-10-31T18:40:50.530Z,16.30
2017-10-31T18:43:19.606Z,12.43
2017-10-31T18:45:48.314Z,11.93
2017-10-31T18:48:17.008Z,17.00
2017-10-31T18:50:45.688Z,17.67
2017-10-31T18:53:14.797Z,17.30
2017-10-31T18:55:44.290Z,19.27
2017-10-31T18:58:12.974Z,18.67
2017-10-31T19:00:41.760Z,19.70
2017-10-31T19:03:10.552Z,33.73
2017-10-31T19:05:39.257Z,13.27
2017-10-31T19:08:08.029Z,20.63
2017-10-31T19:10:36.813Z,13.80
2017-10-31T19:13:05.498Z,21.23
2017-10-31T19:15:34.198Z,18.43
2017-10-31T19:18:03.177Z,21.27
2017-10-31T19:20:31.998Z,17.00
2017-10-31T19:23:01.420Z,14.97
2017-10-31T19:28:06.014Z,19.17
2017-10-31T19:30:34.921Z,23.27
2017-10-31T19:33:03.803Z,17.97
2017-10-31T19:35:32.587Z,18.23
2017-10-31T19:38:01.475Z,16.17
2017-10-31T19:40:30.373Z,18.30
2017-10-31T19:42:58.997Z,19.73
2017-10-31T19:45:27.899Z,22.33
2017-10-31T19:47:56.635Z,19.40
2017-10-31T19:50:25.322Z,23.47
2017-10-31T19:52:54.210Z,28.90
2017-10-31T19:55:22.895Z,22.37
2017-10-31T19:57:51.491Z,17.23
2017-10-31T20:00:20.265Z,16.73
2017-10-31T20:02:49.196Z,19.80
2017-10-31T20:05:17.944Z,22.40
2017-10-31T20:07:46.836Z,26.83
2017-10-31T20:10:16.343Z,21.00
2017-10-31T20:12:45.026Z,36.03
2017-10-31T20:15:13.662Z,24.80
2017-10-31T20:17:42.339Z,19.07
2017-10-31T20:20:11.086Z,31.50
2017-10-31T20:22:40.183Z,21.33
2017-10-31T20:25:08.871Z,20.13
2017-10-31T20:27:37.553Z,26.63
2017-10-31T20:30:06.452Z,24.43
2017-10-31T20:32:35.133Z,24.33
2017-10-31T20:35:03.819Z,24.07
2017-10-31T20:37:32.713Z,27.63
2017-10-31T20:40:01.690Z,26.67
2017-10-31T20:42:30.504Z,25.10
2017-10-31T20:44:59.385Z,27.37
2017-10-31T20:47:28.275Z,39.97
2017-10-31T20:49:57.166Z,28.83
2017-10-31T20:52:26.066Z,29.23
2017-10-31T20:54:55.181Z,21.63
2017-10-31T20:57:24.818Z,26.30
2017-10-31T20:59:53.752Z,21.23
2017-10-31T21:02:22.642Z,27.20
2017-10-31T21:04:51.272Z,19.90
2017-10-31T21:07:20.219Z,56.10
2017-10-31T21:09:48.909Z,52.13
2017-10-31T21:12:17.796Z,46.27
2017-10-31T21:14:46.790Z,48.13
2017-10-31T21:17:15.581Z,42.50
2017-10-31T21:19:44.268Z,30.80
2017-10-31T21:22:13.112Z,35.13
2017-10-31T21:24:41.790Z,25.50
2017-10-31T21:27:10.534Z,27.00
2017-10-31T21:29:40.657Z,21.13
2017-10-31T21:32:11.185Z,29.53
2017-10-31T21:34:41.101Z,29.17
2017-10-31T21:37:10.195Z,27.60
2017-10-31T21:39:40.106Z,18.50
2017-10-31T21:42:08.997Z,22.80
2017-10-31T21:44:37.834Z,20.27
2017-10-31T21:47:06.572Z,22.97
2017-10-31T21:49:36.079Z,20.67
2017-10-31T21:52:04.921Z,20.20
2017-10-31T21:54:33.660Z,24.47
2017-10-31T21:57:02.551Z,32.83
2017-10-31T21:59:31.989Z,34.70
2017-10-31T22:02:02.386Z,25.67
2017-10-31T22:04:32.087Z,29.80
2017-10-31T22:07:00.774Z,23.10
2017-10-31T22:09:29.664Z,26.50
2017-10-31T22:11:58.462Z,22.37
2017-10-31T22:14:27.141Z,25.70
2017-10-31T22:16:55.827Z,30.00
2017-10-31T22:19:24.511Z,27.37
2017-10-31T22:21:53.196Z,27.33
2017-10-31T22:24:21.888Z,37.03
2017-10-31T22:26:50.570Z,33.03
2017-10-31T22:29:19.260Z,28.37
2017-10-31T22:31:48.148Z,25.40
2017-10-31T22:34:16.850Z,26.07
2017-10-31T22:36:45.624Z,28.97
2017-10-31T22:39:14.513Z,34.57
2017-10-31T22:41:43.201Z,26.23
2017-10-31T22:44:11.887Z,23.27
2017-10-31T22:46:40.571Z,25.60
2017-10-31T22:49:09.261Z,20.33
2017-10-31T22:51:37.944Z,23.00
2017-10-31T22:54:06.839Z,25.37
2017-10-31T22:56:35.726Z,23.97
2017-10-31T22:59:04.622Z,23.50
2017-10-31T23:01:33.512Z,28.17
2017-10-31T23:04:02.195Z,18.40
2017-10-31T23:06:30.882Z,21.80
2017-10-31T23:08:59.568Z,40.20
2017-10-31T23:11:28.253Z,28.20
2017-10-31T23:13:56.941Z,37.90
2017-10-31T23:16:25.625Z,19.37
2017-10-31T23:18:54.313Z,35.73
2017-10-31T23:21:22.997Z,28.50
2017-10-31T23:23:51.702Z,26.90
2017-10-31T23:26:20.374Z,21.90
2017-10-31T23:28:49.057Z,37.43
2017-10-31T23:31:18.562Z,23.67
2017-10-31T23:33:47.248Z,36.43
2017-10-31T23:36:16.038Z,26.17
2017-10-31T23:38:44.958Z,18.37
2017-10-31T23:41:13.717Z,22.13
2017-10-31T23:43:42.611Z,18.13
2017-10-31T23:46:11.299Z,20.97
2017-10-31T23:48:40.193Z,19.10
2017-10-31T23:51:09.082Z,21.43
2017-10-31T23:53:38.587Z,27.37
2017-10-31T23:56:07.220Z,23.83
2017-10-31T23:58:36.620Z,27.30
